createdAt,value
2018-11-22T00:00:41.199Z,20.57
2018-11-22T00:03:11.171Z,20.87
2018-11-22T00:08:55.696Z,19.40
2018-11-22T00:11:25.556Z,19.50
2018-11-22T00:13:55.485Z,20.80
2018-11-22T00:16:25.457Z,21.77
2018-11-22T00:18:55.312Z,18.30
2018-11-22T00:21:25.228Z,19.17
2018-11-22T00:23:55.628Z,19.07
2018-11-22T00:26:25.760Z,19.77
2018-11-22T00:29:14.649Z,19.97
2018-11-22T00:31:44.591Z,21.23
2018-11-22T00:34:14.458Z,17.80
2018-11-22T00:36:44.467Z,19.13
2018-11-22T00:39:33.316Z,19.30
2018-11-22T00:42:05.630Z,18.60
2018-11-22T00:44:36.642Z,20.97
2018-11-22T00:47:06.611Z,19.40
2018-11-22T00:49:36.471Z,20.37
2018-11-22T00:52:25.350Z,19.37
2018-11-22T00:54:55.272Z,23.00
2018-11-22T00:57:25.201Z,19.97
2018-11-22T00:59:55.210Z,19.27
2018-11-22T01:02:25.262Z,20.20
2018-11-22T01:04:55.324Z,19.60
2018-11-22T01:07:25.440Z,19.80
2018-11-22T01:09:57.711Z,19.10
2018-11-22T01:12:27.855Z,19.47
2018-11-22T01:14:57.868Z,18.13
2018-11-22T01:17:27.959Z,18.93
2018-11-22T01:19:58.281Z,18.37
2018-11-22T01:22:28.558Z,19.37
2018-11-22T01:25:11.182Z,20.67
2018-11-22T01:27:41.527Z,21.17
2018-11-22T01:30:30.432Z,19.77
2018-11-22T01:33:00.503Z,19.33
2018-11-22T01:35:32.805Z,20.17
2018-11-22T01:38:05.047Z,18.53
2018-11-22T01:40:37.788Z,20.83
2018-11-22T01:43:07.747Z,20.07
2018-11-22T01:45:56.602Z,20.37
2018-11-22T01:48:26.655Z,20.77
2018-11-22T01:50:56.672Z,22.83
2018-11-22T01:53:27.778Z,20.97
2018-11-22T01:55:58.132Z,21.20
2018-11-22T01:58:46.928Z,22.43
2018-11-22T02:01:16.843Z,21.70
2018-11-22T02:03:46.837Z,20.60
2018-11-22T02:06:16.905Z,21.10
2018-11-22T02:08:47.145Z,18.40
2018-11-22T02:11:16.997Z,21.13
2018-11-22T02:13:46.834Z,20.63
2018-11-22T02:16:17.027Z,21.17
2018-11-22T02:18:48.715Z,20.17
2018-11-22T02:21:18.755Z,20.47
2018-11-22T02:23:48.626Z,18.93
2018-11-22T02:26:18.730Z,22.50
2018-11-22T02:29:07.668Z,20.90
2018-11-22T02:31:39.806Z,23.33
2018-11-22T02:34:09.839Z,23.07
2018-11-22T02:36:39.708Z,21.57
2018-11-22T02:39:11.426Z,23.33
2018-11-22T02:41:59.909Z,23.57
2018-11-22T02:44:29.929Z,23.87
2018-11-22T02:47:00.559Z,23.17
2018-11-22T02:49:30.602Z,22.17
2018-11-22T02:52:00.578Z,24.43
2018-11-22T02:54:30.363Z,21.20
2018-11-22T02:57:00.529Z,23.27
2018-11-22T02:59:30.502Z,24.77
2018-11-22T03:02:00.430Z,22.53
2018-11-22T03:04:30.449Z,22.93
2018-11-22T03:07:00.560Z,27.20
2018-11-22T03:13:00.240Z,23.70
2018-11-22T03:15:30.335Z,25.37
2018-11-22T03:18:00.453Z,25.40
2018-11-22T03:20:49.739Z,25.57
2018-11-22T03:23:19.621Z,24.07
2018-11-22T03:26:09.745Z,26.37
2018-11-22T03:28:58.297Z,25.53
2018-11-22T03:31:28.731Z,24.10
2018-11-22T03:34:09.652Z,26.60
2018-11-22T03:36:39.605Z,26.07
2018-11-22T03:39:10.593Z,23.53
2018-11-22T03:44:29.875Z,26.80
2018-11-22T03:46:59.663Z,28.30
2018-11-22T03:49:30.070Z,24.93
2018-11-22T03:51:59.840Z,27.50
2018-11-22T03:54:51.153Z,26.90
2018-11-22T03:57:21.313Z,27.60
2018-11-22T03:59:51.757Z,26.00
2018-11-22T04:02:24.112Z,26.63
2018-11-22T04:11:16.387Z,28.43
2018-11-22T04:13:46.626Z,26.23
2018-11-22T04:16:35.468Z,25.90
2018-11-22T04:19:05.468Z,28.63
2018-11-22T04:21:54.827Z,29.30
2018-11-22T04:24:25.126Z,31.00
2018-11-22T04:26:55.035Z,29.23
2018-11-22T04:29:48.232Z,33.00
2018-11-22T04:32:18.578Z,28.33
2018-11-22T04:35:11.418Z,29.00
2018-11-22T04:37:41.787Z,28.90
2018-11-22T04:40:31.272Z,32.03
2018-11-22T04:43:02.005Z,31.30
2018-11-22T04:48:21.142Z,30.67
2018-11-22T04:53:51.351Z,29.70
2018-11-22T04:56:23.528Z,29.23
2018-11-22T04:58:53.612Z,32.93
2018-11-22T05:01:24.182Z,30.13
2018-11-22T05:03:54.236Z,29.60
2018-11-22T05:06:24.290Z,27.83
2018-11-22T05:08:56.038Z,30.67
2018-11-22T05:11:26.349Z,34.27
2018-11-22T05:13:56.248Z,32.10
2018-11-22T05:16:26.121Z,32.63
2018-11-22T05:18:56.218Z,30.50
2018-11-22T05:21:26.772Z,30.23
2018-11-22T05:23:57.609Z,28.63
2018-11-22T05:26:28.042Z,32.37
2018-11-22T05:29:36.845Z,32.67
2018-11-22T05:32:09.788Z,33.97
2018-11-22T05:37:41.803Z,33.80
2018-11-22T05:40:14.789Z,32.23
2018-11-22T05:42:45.214Z,31.93
2018-11-22T05:45:17.221Z,32.70
2018-11-22T05:47:47.483Z,33.10
2018-11-22T05:50:19.400Z,32.97
2018-11-22T05:52:49.998Z,32.13
2018-11-22T05:55:19.939Z,33.70
2018-11-22T05:57:50.058Z,34.00
2018-11-22T06:00:30.935Z,30.80
2018-11-22T06:03:02.113Z,35.37
2018-11-22T06:05:51.225Z,31.37
2018-11-22T06:08:24.753Z,31.30
2018-11-22T06:10:54.661Z,32.47
2018-11-22T06:13:24.637Z,35.47
2018-11-22T06:15:54.837Z,31.93
2018-11-22T06:18:27.373Z,36.73
2018-11-22T06:20:57.427Z,31.80
2018-11-22T06:23:27.610Z,34.13
2018-11-22T06:25:58.216Z,32.50
2018-11-22T06:31:17.453Z,35.70
2018-11-22T06:33:47.679Z,34.23
2018-11-22T06:36:18.477Z,31.33
2018-11-22T06:38:48.470Z,32.40
2018-11-22T06:41:18.547Z,32.97
2018-11-22T06:43:48.421Z,39.63
2018-11-22T06:46:38.678Z,34.77
2018-11-22T06:49:08.688Z,35.87
2018-11-22T06:51:38.578Z,33.93
2018-11-22T06:54:10.999Z,33.87
2018-11-22T06:56:41.317Z,34.03
2018-11-22T06:59:11.827Z,33.97
2018-11-22T07:01:41.942Z,37.37
2018-11-22T07:04:12.206Z,33.43
2018-11-22T07:07:19.615Z,35.60
2018-11-22T07:09:54.177Z,34.20
2018-11-22T07:12:25.388Z,36.23
2018-11-22T07:14:55.682Z,35.43
2018-11-22T07:17:44.413Z,35.67
2018-11-22T07:20:24.489Z,35.27
2018-11-22T07:22:56.226Z,37.97
2018-11-22T07:25:45.299Z,35.23
2018-11-22T07:28:15.174Z,35.23
2018-11-22T07:30:46.369Z,36.20
2018-11-22T07:33:16.332Z,34.80
2018-11-22T07:35:46.324Z,36.07
2018-11-22T07:38:18.531Z,34.90
2018-11-22T07:40:51.247Z,35.73
2018-11-22T07:43:24.318Z,41.97
2018-11-22T07:45:54.259Z,33.17
2018-11-22T07:48:25.801Z,35.90
2018-11-22T07:50:55.715Z,36.33
2018-11-22T07:53:44.650Z,32.97
2018-11-22T07:56:16.132Z,40.67
2018-11-22T07:58:46.279Z,36.17
2018-11-22T08:01:16.120Z,37.03
2018-11-22T08:03:46.297Z,34.47
2018-11-22T08:06:21.139Z,34.33
2018-11-22T08:08:51.364Z,34.97
2018-11-22T08:11:21.512Z,36.17
2018-11-22T08:13:55.748Z,38.90
2018-11-22T08:16:25.764Z,36.97
2018-11-22T08:18:56.194Z,34.13
2018-11-22T08:21:26.517Z,35.23
2018-11-22T08:23:57.864Z,34.97
2018-11-22T08:26:27.857Z,35.00
2018-11-22T08:28:58.125Z,34.57
2018-11-22T08:31:28.298Z,34.33
2018-11-22T08:33:58.261Z,35.37
2018-11-22T08:36:28.578Z,35.00
2018-11-22T08:39:17.324Z,36.10
2018-11-22T08:44:35.604Z,35.30
2018-11-22T08:47:06.315Z,37.53
2018-11-22T08:49:35.599Z,38.70
2018-11-22T08:52:24.284Z,37.00
2018-11-22T08:54:54.340Z,36.30
2018-11-22T08:57:25.153Z,36.53
2018-11-22T08:59:55.385Z,34.37
2018-11-22T09:02:25.312Z,35.37
2018-11-22T09:04:55.327Z,36.83
2018-11-22T09:10:29.793Z,39.27
2018-11-22T09:13:00.565Z,35.13
2018-11-22T09:15:49.387Z,35.93
2018-11-22T09:18:19.237Z,32.00
2018-11-22T09:20:49.254Z,34.00
2018-11-22T09:23:19.305Z,36.60
2018-11-22T09:25:49.487Z,36.90
2018-11-22T09:28:19.650Z,34.47
2018-11-22T09:30:49.808Z,36.27
2018-11-22T09:33:19.754Z,33.40
2018-11-22T09:35:49.812Z,32.40
2018-11-22T09:38:19.662Z,33.20
2018-11-22T09:40:49.769Z,34.70
2018-11-22T09:43:19.852Z,32.07
2018-11-22T09:45:49.905Z,33.43
2018-11-22T09:48:22.339Z,32.50
2018-11-22T09:50:59.354Z,30.17
2018-11-22T09:53:29.398Z,31.97
2018-11-22T09:55:59.762Z,31.33
2018-11-22T09:58:49.795Z,31.60
2018-11-22T10:01:39.173Z,35.20
2018-11-22T10:04:09.139Z,32.20
2018-11-22T10:06:40.205Z,33.30
2018-11-22T10:09:31.037Z,29.97
2018-11-22T10:12:19.762Z,35.17
2018-11-22T10:14:50.301Z,31.53
2018-11-22T10:17:20.318Z,29.47
2018-11-22T10:19:50.528Z,34.60
2018-11-22T10:22:20.465Z,31.83
2018-11-22T10:24:50.442Z,31.73
2018-11-22T10:27:39.742Z,33.27
2018-11-22T10:30:12.223Z,30.77
2018-11-22T10:32:45.593Z,31.17
2018-11-22T10:35:17.116Z,32.60
2018-11-22T10:37:49.359Z,30.57
2018-11-22T10:40:20.770Z,31.27
2018-11-22T10:42:52.246Z,36.27
2018-11-22T10:45:26.638Z,35.43
2018-11-22T10:47:57.853Z,36.23
2018-11-22T10:50:38.988Z,32.40
2018-11-22T10:53:09.152Z,31.93
2018-11-22T10:55:41.739Z,30.37
2018-11-22T10:58:30.479Z,33.50
2018-11-22T11:01:19.304Z,34.80
2018-11-22T11:04:07.805Z,33.67
2018-11-22T11:06:56.309Z,32.50
2018-11-22T11:09:26.530Z,32.13
2018-11-22T11:11:56.939Z,34.73
2018-11-22T11:14:26.969Z,34.37
2018-11-22T11:16:58.380Z,32.63
2018-11-22T11:19:28.581Z,38.43
2018-11-22T11:21:58.680Z,32.67
2018-11-22T11:24:28.916Z,34.00
2018-11-22T11:26:58.790Z,35.33
2018-11-22T11:29:28.713Z,31.67
2018-11-22T11:31:58.935Z,36.70
2018-11-22T11:34:29.198Z,33.47
2018-11-22T11:36:59.365Z,35.60
2018-11-22T11:39:29.602Z,35.03
2018-11-22T11:44:48.742Z,35.07
2018-11-22T11:50:22.566Z,33.43
2018-11-22T11:52:52.915Z,32.77
2018-11-22T11:55:23.338Z,32.63
2018-11-22T11:57:53.452Z,33.13
2018-11-22T12:00:46.196Z,34.17
2018-11-22T12:03:16.338Z,33.13
2018-11-22T12:05:46.542Z,33.40
2018-11-22T12:08:16.535Z,32.50
2018-11-22T12:10:46.482Z,29.77
2018-11-22T12:13:16.441Z,33.00
2018-11-22T12:18:16.027Z,30.90
2018-11-22T12:20:46.022Z,29.83
2018-11-22T12:23:16.130Z,33.33
2018-11-22T12:31:16.112Z,29.97
2018-11-22T12:34:04.736Z,29.83
2018-11-22T12:37:14.662Z,28.00
2018-11-22T12:39:44.642Z,29.23
2018-11-22T12:42:14.719Z,28.57
2018-11-22T12:44:44.724Z,26.63
2018-11-22T12:47:38.165Z,29.17
2018-11-22T12:50:09.935Z,28.37
2018-11-22T12:52:39.920Z,29.63
2018-11-22T12:55:11.358Z,26.70
2018-11-22T12:57:41.564Z,28.67
2018-11-22T13:00:16.606Z,27.40
2018-11-22T13:02:46.808Z,31.30
2018-11-22T13:05:17.978Z,30.63
2018-11-22T13:07:47.882Z,31.77
2018-11-22T13:10:18.883Z,27.73
2018-11-22T13:12:49.601Z,28.27
2018-11-22T13:15:20.754Z,30.87
2018-11-22T13:17:50.665Z,27.17
2018-11-22T13:20:21.857Z,29.03
2018-11-22T13:23:03.189Z,29.53
2018-11-22T13:25:33.625Z,27.87
2018-11-22T13:28:03.788Z,29.67
2018-11-22T13:30:38.448Z,28.70
2018-11-22T13:33:08.441Z,29.87
2018-11-22T13:35:57.217Z,34.40
2018-11-22T13:38:27.335Z,27.70
2018-11-22T13:40:57.311Z,26.67
2018-11-22T13:43:46.425Z,27.67
2018-11-22T13:46:17.324Z,29.70
2018-11-22T13:48:47.758Z,26.87
2018-11-22T13:54:25.768Z,28.73
2018-11-22T13:56:56.280Z,28.83
2018-11-22T13:59:44.738Z,31.90
2018-11-22T14:02:14.667Z,28.60
2018-11-22T14:04:44.689Z,28.33
2018-11-22T14:07:14.680Z,27.43
2018-11-22T14:09:44.521Z,28.97
2018-11-22T14:12:14.488Z,29.87
2018-11-22T14:14:44.439Z,26.60
2018-11-22T14:19:55.875Z,31.57
2018-11-22T14:22:25.858Z,26.37
2018-11-22T14:24:56.293Z,26.57
2018-11-22T14:27:26.289Z,29.67
2018-11-22T14:29:56.651Z,27.43
2018-11-22T14:32:26.729Z,27.00
2018-11-22T14:35:00.574Z,29.40
2018-11-22T14:37:27.523Z,26.50
2018-11-22T14:39:57.806Z,26.87
2018-11-22T14:42:27.769Z,27.83
2018-11-22T14:44:58.094Z,27.93
2018-11-22T14:47:28.153Z,26.03
2018-11-22T14:49:58.282Z,25.60
2018-11-22T14:52:28.251Z,27.57
2018-11-22T14:57:48.494Z,26.77
2018-11-22T15:00:18.572Z,26.20
2018-11-22T15:02:48.901Z,26.73
2018-11-22T15:05:18.774Z,28.00
2018-11-22T15:07:48.613Z,27.37
2018-11-22T15:10:18.839Z,33.17
2018-11-22T15:12:51.206Z,28.57
2018-11-22T15:15:24.811Z,25.90
2018-11-22T15:18:13.536Z,29.43
2018-11-22T15:20:43.560Z,25.20
2018-11-22T15:23:13.859Z,26.30
2018-11-22T15:25:44.099Z,28.33
2018-11-22T15:28:14.184Z,27.70
2018-11-22T15:30:44.201Z,28.20
2018-11-22T15:33:14.131Z,26.87
2018-11-22T15:38:50.532Z,27.03
2018-11-22T15:41:20.577Z,27.37
2018-11-22T15:43:50.938Z,28.60
2018-11-22T15:46:20.906Z,28.87
2018-11-22T15:48:51.554Z,27.13
2018-11-22T15:51:21.506Z,29.13
2018-11-22T15:53:51.730Z,31.13
2018-11-22T15:56:22.210Z,30.03
2018-11-22T15:58:52.331Z,31.07
2018-11-22T16:01:22.444Z,26.77
2018-11-22T16:03:52.902Z,27.77
2018-11-22T16:06:41.496Z,27.23
2018-11-22T16:09:12.291Z,27.53
2018-11-22T16:11:42.338Z,26.70
2018-11-22T16:14:12.417Z,26.53
2018-11-22T16:16:42.899Z,26.90
2018-11-22T16:19:13.866Z,24.87
2018-11-22T16:21:43.939Z,28.90
2018-11-22T16:24:13.995Z,28.10
2018-11-22T16:27:03.161Z,26.50
2018-11-22T16:29:33.671Z,28.23
2018-11-22T16:32:03.819Z,29.53
2018-11-22T16:34:34.124Z,29.83
2018-11-22T16:37:04.476Z,28.23
2018-11-22T16:39:34.346Z,27.63
2018-11-22T16:42:23.380Z,27.10
2018-11-22T16:44:53.520Z,29.33
2018-11-22T16:47:42.979Z,26.57
2018-11-22T16:50:14.554Z,25.83
2018-11-22T16:52:44.583Z,32.67
2018-11-22T16:55:23.158Z,25.53
2018-11-22T16:57:54.322Z,28.63
2018-11-22T17:00:26.361Z,25.23
2018-11-22T17:02:57.726Z,27.77
2018-11-22T17:05:28.271Z,24.43
2018-11-22T17:07:58.284Z,25.53
2018-11-22T17:10:29.330Z,26.80
2018-11-22T17:13:00.484Z,26.77
2018-11-22T17:15:49.464Z,26.77
2018-11-22T17:18:19.360Z,24.63
2018-11-22T17:20:49.608Z,27.50
2018-11-22T17:23:19.915Z,26.83
2018-11-22T17:25:50.232Z,28.80
2018-11-22T17:28:20.852Z,27.33
2018-11-22T17:30:50.790Z,26.93
2018-11-22T17:33:20.934Z,28.70
2018-11-22T17:35:50.971Z,25.03
2018-11-22T17:38:21.040Z,26.33
2018-11-22T17:40:51.803Z,26.93
2018-11-22T17:43:21.647Z,26.57
2018-11-22T17:45:52.837Z,27.93
2018-11-22T17:48:22.826Z,23.83
2018-11-22T17:51:11.642Z,26.73
2018-11-22T17:53:43.734Z,29.33
2018-11-22T17:56:13.773Z,30.97
2018-11-22T17:58:43.900Z,27.77
2018-11-22T18:01:14.643Z,30.50
2018-11-22T18:03:43.894Z,29.30
2018-11-22T18:06:14.054Z,26.20
2018-11-22T18:08:44.304Z,28.57
2018-11-22T18:11:32.910Z,27.73
2018-11-22T18:16:52.174Z,27.47
2018-11-22T18:19:34.229Z,31.33
2018-11-22T18:22:05.563Z,30.60
2018-11-22T18:24:36.020Z,29.80
2018-11-22T18:27:06.711Z,32.30
2018-11-22T18:29:36.814Z,30.83
2018-11-22T18:32:07.118Z,30.57
2018-11-22T18:34:37.421Z,28.23
2018-11-22T18:37:07.728Z,29.43
2018-11-22T18:39:37.860Z,28.97
2018-11-22T18:42:07.902Z,31.80
2018-11-22T18:44:38.100Z,28.77
2018-11-22T18:47:08.218Z,31.83
2018-11-22T18:49:38.158Z,30.27
2018-11-22T18:52:08.335Z,30.53
2018-11-22T18:54:38.511Z,30.00
2018-11-22T18:57:08.644Z,35.63
2018-11-22T18:59:39.080Z,29.73
2018-11-22T19:02:09.465Z,31.07
2018-11-22T19:04:39.549Z,30.47
2018-11-22T19:07:09.695Z,31.13
2018-11-22T19:09:39.739Z,29.10
2018-11-22T19:12:23.968Z,30.33
2018-11-22T19:14:54.929Z,32.77
2018-11-22T19:17:24.893Z,33.87
2018-11-22T19:20:13.356Z,31.30
2018-11-22T19:23:03.267Z,32.83
2018-11-22T19:25:33.219Z,31.70
2018-11-22T19:33:40.877Z,32.40
2018-11-22T19:36:10.837Z,33.77
2018-11-22T19:38:40.863Z,30.73
2018-11-22T19:41:10.871Z,32.60
2018-11-22T19:43:40.872Z,34.63
2018-11-22T19:46:10.800Z,30.83
2018-11-22T19:48:40.852Z,34.53
2018-11-22T19:51:10.701Z,33.90
2018-11-22T19:53:40.693Z,30.30
2018-11-22T19:56:10.637Z,37.10
2018-11-22T19:58:41.162Z,32.43
2018-11-22T20:01:11.174Z,32.10
2018-11-22T20:03:43.662Z,33.07
2018-11-22T20:06:13.605Z,32.70
2018-11-22T20:08:43.797Z,31.33
2018-11-22T20:11:14.001Z,33.00
2018-11-22T20:14:03.370Z,31.00
2018-11-22T20:16:33.461Z,31.30
2018-11-22T20:19:03.611Z,35.47
2018-11-22T20:21:33.479Z,34.43
2018-11-22T20:24:03.478Z,30.97
2018-11-22T20:26:33.414Z,34.40
2018-11-22T20:29:03.770Z,31.87
2018-11-22T20:31:34.151Z,31.37
2018-11-22T20:34:23.121Z,32.17
2018-11-22T20:36:53.449Z,33.20
2018-11-22T20:39:23.523Z,31.80
2018-11-22T20:41:54.305Z,30.37
2018-11-22T20:44:24.198Z,32.60
2018-11-22T20:46:54.246Z,33.50
2018-11-22T20:49:24.561Z,32.27
2018-11-22T20:52:06.717Z,36.80
2018-11-22T20:54:36.761Z,34.43
2018-11-22T20:57:06.834Z,29.13
2018-11-22T20:59:39.687Z,36.57
2018-11-22T21:02:09.926Z,34.87
2018-11-22T21:04:40.684Z,29.23
2018-11-22T21:07:10.799Z,29.03
2018-11-22T21:10:00.187Z,30.47
2018-11-22T21:12:30.452Z,29.57
2018-11-22T21:15:00.657Z,31.43
2018-11-22T21:17:50.603Z,31.60
2018-11-22T21:20:22.640Z,30.57
2018-11-22T21:22:53.279Z,33.30
2018-11-22T21:25:25.663Z,32.23
2018-11-22T21:27:58.762Z,31.40
2018-11-22T21:30:47.626Z,32.70
2018-11-22T21:33:18.484Z,33.10
2018-11-22T21:35:48.526Z,31.10
2018-11-22T21:38:45.470Z,31.87
2018-11-22T21:43:56.477Z,30.03
2018-11-22T21:46:45.036Z,30.37
2018-11-22T21:49:15.511Z,32.00
2018-11-22T21:51:46.836Z,30.53
2018-11-22T21:54:16.792Z,28.13
2018-11-22T21:56:46.857Z,28.90
2018-11-22T21:59:17.080Z,31.07
2018-11-22T22:01:59.114Z,30.00
2018-11-22T22:04:40.161Z,34.10
2018-11-22T22:07:10.245Z,31.93
2018-11-22T22:09:40.080Z,33.27
2018-11-22T22:12:10.132Z,33.43
2018-11-22T22:14:39.947Z,34.17
2018-11-22T22:17:09.941Z,29.20
2018-11-22T22:19:39.926Z,30.87
2018-11-22T22:25:31.241Z,29.73
2018-11-22T22:28:03.072Z,31.40
2018-11-22T22:30:34.445Z,29.80
2018-11-22T22:33:06.241Z,30.50
2018-11-22T22:35:36.139Z,30.00
2018-11-22T22:38:06.376Z,31.97
2018-11-22T22:40:36.493Z,29.70
2018-11-22T22:43:06.654Z,29.63
2018-11-22T22:45:37.171Z,32.37
2018-11-22T22:48:47.481Z,29.10
2018-11-22T22:51:37.199Z,29.70
2018-11-22T22:54:07.938Z,31.30
2018-11-22T22:56:38.069Z,29.40
2018-11-22T22:59:08.464Z,31.90
2018-11-22T23:01:38.442Z,35.20
2018-11-22T23:04:08.683Z,29.97
2018-11-22T23:06:39.115Z,29.90
2018-11-22T23:09:12.787Z,32.77
2018-11-22T23:11:42.967Z,33.03
2018-11-22T23:14:13.203Z,32.93
2018-11-22T23:16:43.172Z,28.37
2018-11-22T23:19:13.204Z,36.00
2018-11-22T23:22:02.147Z,33.63
2018-11-22T23:24:32.457Z,32.13
2018-11-22T23:27:02.503Z,29.27
2018-11-22T23:29:32.411Z,30.17
2018-11-22T23:32:20.999Z,35.63
2018-11-22T23:35:09.822Z,31.93
2018-11-22T23:37:40.055Z,29.50
2018-11-22T23:40:17.028Z,30.10
2018-11-22T23:42:47.183Z,31.33
2018-11-22T23:45:18.375Z,30.60
2018-11-22T23:47:48.943Z,29.73
2018-11-22T23:50:37.529Z,34.73
2018-11-22T23:53:07.808Z,32.77
2018-11-22T23:55:37.961Z,30.70
2018-11-22T23:58:07.933Z,31.73
